createdAt,value
2024-05-09T00:00:44.072Z,100.00
2024-05-09T00:03:12.117Z,100.00
2024-05-09T00:05:44.333Z,100.00
2024-05-09T00:08:12.465Z,100.00
2024-05-09T00:10:41.050Z,100.00
2024-05-09T00:13:10.336Z,100.00
2024-05-09T00:15:38.173Z,100.00
2024-05-09T00:18:07.360Z,100.00
2024-05-09T00:20:39.082Z,100.00
2024-05-09T00:23:13.886Z,100.00
2024-05-09T00:25:44.801Z,100.00
2024-05-09T00:28:12.968Z,100.00
2024-05-09T00:30:40.599Z,100.00
2024-05-09T00:33:09.771Z,100.00
2024-05-09T00:35:38.630Z,100.00
2024-05-09T00:38:06.184Z,100.00
2024-05-09T00:40:42.383Z,100.00
2024-05-09T00:43:12.382Z,100.00
2024-05-09T00:45:40.694Z,100.00
2024-05-09T00:48:09.573Z,100.00
2024-05-09T00:50:41.335Z,100.00
2024-05-09T00:53:11.992Z,100.00
2024-05-09T00:55:40.246Z,100.00
2024-05-09T00:58:09.797Z,100.00
2024-05-09T01:00:40.024Z,100.00
2024-05-09T01:03:11.625Z,100.00
2024-05-09T01:05:40.850Z,100.00
2024-05-09T01:08:09.008Z,100.00
2024-05-09T01:10:42.787Z,100.00
2024-05-09T01:13:12.232Z,100.00
2024-05-09T01:15:39.560Z,100.00
2024-05-09T01:18:13.822Z,100.00
2024-05-09T01:20:44.051Z,100.00
2024-05-09T01:23:15.125Z,100.00
2024-05-09T01:25:44.981Z,100.00
2024-05-09T01:28:12.519Z,100.00
2024-05-09T01:30:39.618Z,100.00
2024-05-09T01:33:08.956Z,100.00
2024-05-09T01:35:39.276Z,100.00
2024-05-09T01:38:07.504Z,100.00
2024-05-09T01:40:38.649Z,100.00
2024-05-09T01:43:09.189Z,100.00
2024-05-09T01:45:37.322Z,100.00
2024-05-09T01:48:05.165Z,100.00
2024-05-09T01:50:38.673Z,100.00
2024-05-09T01:53:14.075Z,100.00
2024-05-09T01:55:42.217Z,100.00
2024-05-09T01:58:09.891Z,100.00
2024-05-09T02:00:41.291Z,100.00
2024-05-09T02:03:14.327Z,100.00
2024-05-09T02:05:44.809Z,100.00
2024-05-09T02:08:17.467Z,100.00
2024-05-09T02:10:47.285Z,100.00
2024-05-09T02:13:15.911Z,100.00
2024-05-09T02:15:43.423Z,100.00
2024-05-09T02:18:11.085Z,100.00
2024-05-09T02:20:41.178Z,100.00
2024-05-09T02:23:09.637Z,100.00
2024-05-09T02:25:37.078Z,100.00
2024-05-09T02:28:04.324Z,100.00
2024-05-09T02:30:39.128Z,100.00
2024-05-09T02:33:11.005Z,100.00
2024-05-09T02:35:40.250Z,100.00
2024-05-09T02:38:09.543Z,100.00
2024-05-09T02:40:38.912Z,100.00
2024-05-09T02:43:09.052Z,100.00
2024-05-09T02:45:37.502Z,100.00
2024-05-09T02:48:05.235Z,100.00
2024-05-09T02:50:37.996Z,100.00
2024-05-09T02:53:08.762Z,100.00
2024-05-09T02:55:36.808Z,100.00
2024-05-09T02:58:03.961Z,100.00
2024-05-09T03:00:38.560Z,100.00
2024-05-09T03:03:10.359Z,100.00
2024-05-09T03:05:40.154Z,100.00
2024-05-09T03:08:07.845Z,100.00
2024-05-09T03:10:37.242Z,100.00
2024-05-09T03:13:11.900Z,100.00
2024-05-09T03:15:39.670Z,100.00
2024-05-09T03:18:07.195Z,100.00
2024-05-09T03:20:36.226Z,100.00
2024-05-09T03:23:08.912Z,100.00
2024-05-09T03:25:37.107Z,100.00
2024-05-09T03:28:04.414Z,100.00
2024-05-09T03:30:39.848Z,100.00
2024-05-09T03:33:17.701Z,100.00
2024-05-09T03:35:46.935Z,100.00
2024-05-09T03:38:14.508Z,100.00
2024-05-09T03:40:46.491Z,100.00
2024-05-09T03:43:14.351Z,100.00
2024-05-09T03:45:43.344Z,100.00
2024-05-09T03:48:10.743Z,100.00
2024-05-09T03:50:38.385Z,100.00
2024-05-09T03:53:06.250Z,100.00
2024-05-09T03:55:33.655Z,100.00
2024-05-09T03:58:00.830Z,100.00
2024-05-09T04:00:35.606Z,100.00
2024-05-09T04:03:08.920Z,100.00
2024-05-09T04:05:40.507Z,100.00
2024-05-09T04:08:09.058Z,100.00
2024-05-09T04:10:36.264Z,100.00
2024-05-09T04:13:04.192Z,100.00
2024-05-09T04:15:32.295Z,100.00
2024-05-09T04:18:00.020Z,100.00
2024-05-09T04:20:36.443Z,100.00
2024-05-09T04:23:08.375Z,100.00
2024-05-09T04:25:37.270Z,100.00
2024-05-09T04:28:04.976Z,100.00
2024-05-09T04:30:38.027Z,100.00
2024-05-09T04:33:10.494Z,100.00
2024-05-09T04:35:39.904Z,100.00
2024-05-09T04:38:08.205Z,78.69
2024-05-09T04:40:37.115Z,73.83
2024-05-09T04:43:05.929Z,68.05
2024-05-09T04:45:33.491Z,62.63
2024-05-09T04:48:01.331Z,57.25
2024-05-09T04:50:36.573Z,52.72
2024-05-09T04:53:10.555Z,49.21
2024-05-09T04:55:39.899Z,46.17
2024-05-09T04:58:08.968Z,46.08
2024-05-09T05:00:38.846Z,46.80
2024-05-09T05:03:10.520Z,46.19
2024-05-09T05:05:41.046Z,48.66
2024-05-09T05:08:14.922Z,50.98
2024-05-09T05:10:43.049Z,50.73
2024-05-09T05:13:21.884Z,51.58
2024-05-09T05:15:57.345Z,53.33
2024-05-09T05:18:27.099Z,53.76
2024-05-09T05:20:56.329Z,54.76
2024-05-09T05:23:24.466Z,55.96
2024-05-09T05:25:54.944Z,55.79
2024-05-09T05:28:22.512Z,57.80
2024-05-09T05:30:49.905Z,58.68
2024-05-09T05:33:20.449Z,54.85
2024-05-09T05:35:48.043Z,54.63
2024-05-09T05:38:15.414Z,49.00
2024-05-09T05:40:42.602Z,48.77
2024-05-09T05:43:16.233Z,49.92
2024-05-09T05:45:44.096Z,48.18
2024-05-09T05:48:12.777Z,48.86
2024-05-09T05:50:40.127Z,49.84
2024-05-09T05:53:08.278Z,51.40
2024-05-09T05:55:37.112Z,51.82
2024-05-09T05:58:04.542Z,51.92
2024-05-09T06:03:02.553Z,46.43
2024-05-09T06:05:29.715Z,44.02
2024-05-09T06:07:56.819Z,44.90
2024-05-09T06:10:29.654Z,42.62
2024-05-09T06:13:02.122Z,39.38
2024-05-09T06:15:29.184Z,37.87
2024-05-09T06:17:56.568Z,35.02
2024-05-09T06:20:31.862Z,34.04
2024-05-09T06:23:03.605Z,36.03
2024-05-09T06:25:30.781Z,35.79
2024-05-09T06:27:57.784Z,32.54
2024-05-09T06:30:30.520Z,30.94
2024-05-09T06:33:06.281Z,29.72
2024-05-09T06:35:34.228Z,30.22
2024-05-09T06:38:01.855Z,31.03
2024-05-09T06:40:37.057Z,33.59
2024-05-09T06:43:17.613Z,35.17
2024-05-09T06:45:48.417Z,34.21
2024-05-09T06:48:19.451Z,31.62
2024-05-09T06:50:47.240Z,32.99
2024-05-09T06:53:15.391Z,34.23
2024-05-09T06:55:42.863Z,35.71
2024-05-09T06:58:10.061Z,36.80
2024-05-09T07:00:40.347Z,33.98
2024-05-09T07:03:11.439Z,31.54
2024-05-09T07:05:40.012Z,30.32
2024-05-09T07:08:08.321Z,29.42
2024-05-09T07:10:36.845Z,28.17
2024-05-09T07:13:11.124Z,27.53
2024-05-09T07:15:38.796Z,27.80
2024-05-09T07:18:10.118Z,28.22
2024-05-09T07:20:37.486Z,28.78
2024-05-09T07:23:05.110Z,29.22
2024-05-09T07:25:32.383Z,30.75
2024-05-09T07:27:59.657Z,30.64
2024-05-09T07:30:33.088Z,31.60
2024-05-09T07:33:02.823Z,32.32
2024-05-09T07:35:31.257Z,31.93
2024-05-09T07:37:58.851Z,31.04
2024-05-09T07:40:33.167Z,31.12
2024-05-09T07:43:04.587Z,30.48
2024-05-09T07:45:48.140Z,31.07
2024-05-09T07:53:39.473Z,32.18
2024-05-09T07:56:10.417Z,29.68
2024-05-09T07:58:39.383Z,29.08
2024-05-09T08:01:06.745Z,28.90
2024-05-09T08:03:34.523Z,28.84
2024-05-09T08:06:01.962Z,28.18
2024-05-09T08:08:29.403Z,26.46
2024-05-09T08:10:56.722Z,25.69
2024-05-09T08:13:23.844Z,24.02
2024-05-09T08:15:51.945Z,24.29
2024-05-09T08:18:20.050Z,25.38
2024-05-09T08:20:48.940Z,27.14
2024-05-09T08:23:16.253Z,28.84
2024-05-09T08:25:43.254Z,30.60
2024-05-09T08:28:13.316Z,32.46
2024-05-09T08:30:40.606Z,33.62
2024-05-09T08:33:08.235Z,33.99
2024-05-09T08:35:36.079Z,32.57
2024-05-09T08:38:04.780Z,31.15
2024-05-09T08:40:35.816Z,30.41
2024-05-09T08:43:11.549Z,30.58
2024-05-09T08:45:44.417Z,31.15
2024-05-09T08:48:15.729Z,32.19
2024-05-09T08:50:45.148Z,33.23
2024-05-09T08:53:14.783Z,33.29
2024-05-09T08:55:43.762Z,31.38
2024-05-09T08:58:19.712Z,31.20
2024-05-09T09:00:48.214Z,29.80
2024-05-09T09:03:19.950Z,30.60
2024-05-09T09:06:09.312Z,30.25
2024-05-09T09:08:39.761Z,28.43
2024-05-09T09:11:07.267Z,28.64
2024-05-09T09:13:34.422Z,28.75
2024-05-09T09:16:03.266Z,29.73
2024-05-09T09:18:31.217Z,29.41
2024-05-09T09:20:59.017Z,29.22
2024-05-09T09:23:30.456Z,27.88
2024-05-09T09:26:01.014Z,28.14
2024-05-09T09:28:28.566Z,28.59
2024-05-09T09:31:03.263Z,29.06
2024-05-09T09:33:31.911Z,28.57
2024-05-09T09:35:59.397Z,29.42
2024-05-09T09:38:30.302Z,30.63
2024-05-09T09:40:58.710Z,31.34
2024-05-09T09:43:26.848Z,31.96
2024-05-09T09:45:59.938Z,31.67
2024-05-09T09:48:27.748Z,31.07
2024-05-09T09:50:56.622Z,30.00
2024-05-09T09:53:24.094Z,30.63
2024-05-09T09:55:52.480Z,31.33
2024-05-09T09:58:19.813Z,30.78
2024-05-09T10:00:47.460Z,31.08
2024-05-09T10:03:14.783Z,30.99
2024-05-09T10:05:45.356Z,31.61
2024-05-09T10:08:16.130Z,32.31
2024-05-09T10:10:47.685Z,32.73
2024-05-09T10:13:15.694Z,34.00
2024-05-09T10:16:10.070Z,33.58
2024-05-09T10:18:38.470Z,32.18
2024-05-09T10:21:21.639Z,31.04
2024-05-09T10:24:02.081Z,31.03
2024-05-09T10:26:55.336Z,31.45
2024-05-09T10:29:25.887Z,31.90
2024-05-09T10:31:53.093Z,29.99
2024-05-09T10:34:23.118Z,28.99
2024-05-09T10:36:54.979Z,27.45
2024-05-09T10:39:22.853Z,25.87
2024-05-09T10:41:49.990Z,26.83
2024-05-09T10:44:18.725Z,27.69
2024-05-09T10:46:46.491Z,27.98
2024-05-09T10:49:17.135Z,29.29
2024-05-09T10:51:45.509Z,29.50
2024-05-09T10:54:12.701Z,29.65
2024-05-09T10:56:39.933Z,30.45
2024-05-09T10:59:06.997Z,29.67
2024-05-09T11:01:34.426Z,27.91
2024-05-09T11:04:04.184Z,26.95
2024-05-09T11:06:31.446Z,27.91
2024-05-09T11:08:58.587Z,27.88
2024-05-09T11:11:26.758Z,27.75
2024-05-09T11:13:53.831Z,27.68
2024-05-09T11:16:21.631Z,28.55
2024-05-09T11:18:56.817Z,28.14
2024-05-09T11:21:25.062Z,28.52
2024-05-09T11:23:52.467Z,29.02
2024-05-09T11:26:21.703Z,29.53
2024-05-09T11:28:50.882Z,30.17
2024-05-09T11:31:18.688Z,29.76
2024-05-09T11:33:47.011Z,30.37
2024-05-09T11:36:14.733Z,29.88
2024-05-09T11:38:42.244Z,29.73
2024-05-09T11:41:09.332Z,29.14
2024-05-09T11:43:36.414Z,29.82
2024-05-09T11:46:04.191Z,29.85
2024-05-09T11:48:32.281Z,30.44
2024-05-09T11:50:59.666Z,30.55
2024-05-09T11:53:26.646Z,30.97
2024-05-09T11:55:53.780Z,31.33
2024-05-09T11:58:23.007Z,31.31
2024-05-09T12:00:50.329Z,30.91
2024-05-09T12:03:17.590Z,30.94
2024-05-09T12:05:44.916Z,31.02
2024-05-09T12:08:12.598Z,31.18
2024-05-09T12:10:39.894Z,31.81
2024-05-09T12:13:07.766Z,32.02
2024-05-09T12:15:39.215Z,31.91
2024-05-09T12:18:08.094Z,31.65
2024-05-09T12:20:38.996Z,31.81
2024-05-09T12:23:09.611Z,31.65
2024-05-09T12:25:39.065Z,31.58
2024-05-09T12:28:07.340Z,32.10
2024-05-09T12:30:38.791Z,31.84
2024-05-09T12:33:09.202Z,32.10
2024-05-09T12:35:36.689Z,33.03
2024-05-09T12:38:04.424Z,31.86
2024-05-09T12:40:36.423Z,31.55
2024-05-09T12:43:08.180Z,31.44
2024-05-09T12:45:36.399Z,31.10
2024-05-09T12:48:07.107Z,31.82
2024-05-09T12:50:34.982Z,32.07
2024-05-09T12:53:03.800Z,31.91
2024-05-09T12:55:41.059Z,32.67
2024-05-09T12:58:16.740Z,31.80
2024-05-09T13:00:45.234Z,32.15
2024-05-09T13:03:12.782Z,32.48
2024-05-09T13:05:45.349Z,32.57
2024-05-09T13:08:13.988Z,32.49
2024-05-09T13:10:41.503Z,32.02
2024-05-09T13:13:12.526Z,31.55
2024-05-09T13:15:40.139Z,31.66
2024-05-09T13:18:07.750Z,32.23
2024-05-09T13:20:36.743Z,32.19
2024-05-09T13:23:07.006Z,32.58
2024-05-09T13:25:35.352Z,32.85
2024-05-09T13:28:03.699Z,32.83
2024-05-09T13:30:39.134Z,33.35
2024-05-09T13:33:13.714Z,33.60
2024-05-09T13:35:46.846Z,34.04
2024-05-09T13:38:17.645Z,34.51
2024-05-09T13:40:45.167Z,34.43
2024-05-09T13:43:12.609Z,33.91
2024-05-09T13:45:39.880Z,34.01
2024-05-09T13:48:09.902Z,34.06
2024-05-09T13:50:37.580Z,33.53
2024-05-09T13:53:07.442Z,33.65
2024-05-09T13:55:38.504Z,33.96
2024-05-09T13:58:06.711Z,33.77
2024-05-09T14:00:44.121Z,33.65
2024-05-09T14:03:17.669Z,33.72
2024-05-09T14:05:46.735Z,34.10
2024-05-09T14:08:15.696Z,33.95
2024-05-09T14:10:46.720Z,33.94
2024-05-09T14:13:15.053Z,33.88
2024-05-09T14:15:42.326Z,33.56
2024-05-09T14:18:12.718Z,34.10
2024-05-09T14:20:42.398Z,34.43
2024-05-09T14:23:09.938Z,34.20
2024-05-09T14:25:42.014Z,33.90
2024-05-09T14:28:11.572Z,34.09
2024-05-09T14:30:39.648Z,34.47
2024-05-09T14:33:08.761Z,34.19
2024-05-09T14:35:37.928Z,34.85
2024-05-09T14:38:06.837Z,35.40
2024-05-09T14:40:40.911Z,35.00
2024-05-09T14:43:12.398Z,34.88
2024-05-09T14:45:40.245Z,34.67
2024-05-09T14:48:08.026Z,34.94
2024-05-09T14:50:38.708Z,34.74
2024-05-09T14:53:08.781Z,34.77
2024-05-09T14:55:37.719Z,34.67
2024-05-09T14:58:06.821Z,35.09
2024-05-09T15:00:38.482Z,35.05
2024-05-09T15:03:07.443Z,35.27
2024-05-09T15:05:34.580Z,35.38
2024-05-09T15:08:01.767Z,35.08
2024-05-09T15:10:34.709Z,34.98
2024-05-09T15:13:04.148Z,35.70
2024-05-09T15:15:32.112Z,35.53
2024-05-09T15:18:00.335Z,35.22
2024-05-09T15:20:34.469Z,35.74
2024-05-09T15:23:06.069Z,36.08
2024-05-09T15:25:34.304Z,36.23
2024-05-09T15:28:01.752Z,35.85
2024-05-09T15:30:32.122Z,36.29
2024-05-09T15:33:03.849Z,36.17
2024-05-09T15:35:31.938Z,36.22
2024-05-09T15:37:59.914Z,36.58
2024-05-09T15:40:35.921Z,36.69
2024-05-09T15:43:07.968Z,36.77
2024-05-09T15:45:36.044Z,37.02
2024-05-09T15:48:04.223Z,37.21
2024-05-09T15:50:38.083Z,37.36
2024-05-09T15:53:09.469Z,37.09
2024-05-09T15:55:37.633Z,37.45
2024-05-09T15:58:05.843Z,37.42
2024-05-09T16:00:45.057Z,37.57
2024-05-09T16:03:14.720Z,37.77
2024-05-09T16:05:46.709Z,38.10
2024-05-09T16:08:15.710Z,38.29
2024-05-09T16:10:46.107Z,39.00
2024-05-09T16:13:14.873Z,38.86
2024-05-09T16:15:43.851Z,39.04
2024-05-09T16:18:11.505Z,39.23
2024-05-09T16:20:41.480Z,38.73
2024-05-09T16:23:11.178Z,38.62
2024-05-09T16:25:39.629Z,38.79
2024-05-09T16:28:09.860Z,38.47
2024-05-09T16:30:39.782Z,38.77
2024-05-09T16:33:07.855Z,38.84
2024-05-09T16:35:35.671Z,38.46
2024-05-09T16:38:04.223Z,38.52
2024-05-09T16:40:37.988Z,38.71
2024-05-09T16:43:09.473Z,38.86
2024-05-09T16:45:37.967Z,38.80
2024-05-09T16:48:06.827Z,39.04
2024-05-09T16:50:35.692Z,40.18
2024-05-09T16:53:05.023Z,41.15
2024-05-09T16:55:32.998Z,41.39
2024-05-09T16:58:00.770Z,42.37
2024-05-09T17:00:38.244Z,42.26
2024-05-09T17:03:11.213Z,42.39
2024-05-09T17:05:39.525Z,42.61
2024-05-09T17:08:07.622Z,42.29
2024-05-09T17:10:36.506Z,42.45
2024-05-09T17:13:06.455Z,42.69
2024-05-09T17:15:36.639Z,43.16
2024-05-09T17:18:05.511Z,42.97
2024-05-09T17:20:35.772Z,43.09
2024-05-09T17:23:06.309Z,44.02
2024-05-09T17:25:34.251Z,44.21
2024-05-09T17:28:07.749Z,45.06
2024-05-09T17:30:38.199Z,45.28
2024-05-09T17:33:09.289Z,45.95
2024-05-09T17:35:37.834Z,45.74
2024-05-09T17:38:06.588Z,46.49
2024-05-09T17:40:36.544Z,46.76
2024-05-09T17:43:07.807Z,47.11
2024-05-09T17:45:40.978Z,46.98
2024-05-09T17:48:10.496Z,46.91
2024-05-09T17:50:39.599Z,47.28
2024-05-09T17:53:07.350Z,47.18
2024-05-09T17:55:34.994Z,47.42
2024-05-09T17:58:02.574Z,47.57
2024-05-09T18:00:37.561Z,48.04
2024-05-09T18:03:09.035Z,48.29
2024-05-09T18:05:37.384Z,48.29
2024-05-09T18:08:08.649Z,48.04
2024-05-09T18:10:38.815Z,48.25
2024-05-09T18:13:08.872Z,48.31
2024-05-09T18:15:36.939Z,48.59
2024-05-09T18:18:05.115Z,48.95
2024-05-09T18:20:41.312Z,49.46
2024-05-09T18:23:13.981Z,49.44
2024-05-09T18:25:41.777Z,49.91
2024-05-09T18:28:09.138Z,50.21
2024-05-09T18:30:55.816Z,50.77
2024-05-09T18:33:24.939Z,50.95
2024-05-09T18:35:52.285Z,50.77
2024-05-09T18:38:20.848Z,50.88
2024-05-09T18:40:49.401Z,50.65
2024-05-09T18:43:17.560Z,50.92
2024-05-09T18:45:45.721Z,50.81
2024-05-09T18:48:13.580Z,50.96
2024-05-09T18:50:41.672Z,50.95
2024-05-09T18:53:13.284Z,51.31
2024-05-09T18:55:43.533Z,51.99
2024-05-09T18:58:10.930Z,52.21
2024-05-09T19:00:44.043Z,52.56
2024-05-09T19:03:14.294Z,52.95
2024-05-09T19:05:43.989Z,53.63
2024-05-09T19:08:12.434Z,53.94
2024-05-09T19:10:40.416Z,54.46
2024-05-09T19:13:11.809Z,55.48
2024-05-09T19:15:41.852Z,56.15
2024-05-09T19:18:10.499Z,56.99
2024-05-09T19:20:38.351Z,57.60
2024-05-09T19:23:07.065Z,58.07
2024-05-09T19:25:35.539Z,58.84
2024-05-09T19:28:03.721Z,59.26
2024-05-09T19:30:38.546Z,60.70
2024-05-09T19:33:10.188Z,61.85
2024-05-09T19:35:38.840Z,62.62
2024-05-09T19:38:06.573Z,62.65
2024-05-09T19:40:35.092Z,63.23
2024-05-09T19:43:05.287Z,63.33
2024-05-09T19:45:34.677Z,63.56
2024-05-09T19:48:03.130Z,63.45
2024-05-09T19:50:39.306Z,62.17
2024-05-09T19:53:11.347Z,62.53
2024-05-09T19:55:38.902Z,63.78
2024-05-09T19:58:07.447Z,64.25
2024-05-09T20:00:38.265Z,63.74
2024-05-09T20:03:07.878Z,63.07
2024-05-09T20:05:36.029Z,63.44
2024-05-09T20:08:03.613Z,64.34
2024-05-09T20:10:33.305Z,64.04
2024-05-09T20:13:05.995Z,63.58
2024-05-09T20:15:35.486Z,61.83
2024-05-09T20:18:03.635Z,61.51
2024-05-09T20:20:37.654Z,61.79
2024-05-09T20:23:09.539Z,59.93
2024-05-09T20:25:37.388Z,60.84
2024-05-09T20:28:06.384Z,63.50
2024-05-09T20:30:35.332Z,64.35
2024-05-09T20:33:04.946Z,63.15
2024-05-09T20:35:33.617Z,63.82
2024-05-09T20:38:02.155Z,64.34
2024-05-09T20:40:34.609Z,64.58
2024-05-09T20:43:05.733Z,65.42
2024-05-09T20:45:33.784Z,65.20
2024-05-09T20:48:01.444Z,66.86
2024-05-09T20:50:36.808Z,67.65
2024-05-09T20:53:13.128Z,68.69
2024-05-09T20:55:41.799Z,68.98
2024-05-09T20:58:09.845Z,66.93
2024-05-09T21:00:40.872Z,65.73
2024-05-09T21:03:11.802Z,67.35
2024-05-09T21:05:40.259Z,68.14
2024-05-09T21:08:07.938Z,68.44
2024-05-09T21:10:36.558Z,69.33
2024-05-09T21:13:05.086Z,70.95
2024-05-09T21:15:32.950Z,70.70
2024-05-09T21:18:00.064Z,69.59
2024-05-09T21:22:57.942Z,70.31
2024-05-09T21:25:25.307Z,68.98
2024-05-09T21:27:52.712Z,69.84
2024-05-09T21:30:31.512Z,71.09
2024-05-09T21:33:09.140Z,71.56
2024-05-09T21:35:37.233Z,71.89
2024-05-09T21:38:04.764Z,72.78
2024-05-09T21:40:35.087Z,73.65
2024-05-09T21:43:04.730Z,73.07
2024-05-09T21:45:32.626Z,74.73
2024-05-09T21:48:00.036Z,74.35
2024-05-09T21:50:36.081Z,75.43
2024-05-09T21:53:07.606Z,74.90
2024-05-09T21:55:34.994Z,73.40
2024-05-09T21:58:02.726Z,71.42
2024-05-09T22:00:36.101Z,71.99
2024-05-09T22:03:06.612Z,70.81
2024-05-09T22:05:34.239Z,66.05
2024-05-09T22:08:01.612Z,63.04
2024-05-09T22:10:33.943Z,60.04
2024-05-09T22:13:04.718Z,58.28
2024-05-09T22:15:36.411Z,57.61
2024-05-09T22:18:05.304Z,58.20
2024-05-09T22:20:37.320Z,55.49
2024-05-09T22:23:07.034Z,55.43
2024-05-09T22:25:34.434Z,54.32
2024-05-09T22:28:02.829Z,54.41
2024-05-09T22:30:36.666Z,53.62
2024-05-09T22:33:10.813Z,53.47
2024-05-09T22:35:40.732Z,53.30
2024-05-09T22:38:08.644Z,52.50
2024-05-09T22:40:46.665Z,52.31
2024-05-09T22:43:21.703Z,52.09
2024-05-09T22:45:51.277Z,51.69
2024-05-09T22:48:19.019Z,53.03
2024-05-09T22:50:46.239Z,52.71
2024-05-09T22:53:13.355Z,51.92
2024-05-09T22:55:40.474Z,51.41
2024-05-09T22:58:07.758Z,52.06
2024-05-09T23:00:35.191Z,51.72
2024-05-09T23:03:02.824Z,51.50
2024-05-09T23:05:32.326Z,51.44
2024-05-09T23:08:01.863Z,50.87
2024-05-09T23:10:35.622Z,50.91
2024-05-09T23:13:07.214Z,50.66
2024-05-09T23:15:36.066Z,50.38
2024-05-09T23:18:03.271Z,49.76
2024-05-09T23:20:37.032Z,50.54
2024-05-09T23:23:07.356Z,50.81
2024-05-09T23:25:35.025Z,50.41
2024-05-09T23:28:02.163Z,49.95
2024-05-09T23:30:36.909Z,50.46
2024-05-09T23:33:07.420Z,49.83
2024-05-09T23:35:34.782Z,50.13
2024-05-09T23:38:01.853Z,50.28
2024-05-09T23:42:58.978Z,50.47
2024-05-09T23:45:26.055Z,50.41
2024-05-09T23:47:53.532Z,50.07
2024-05-09T23:50:26.735Z,50.62
2024-05-09T23:53:00.695Z,50.26
2024-05-09T23:55:28.794Z,49.80
2024-05-09T23:57:55.959Z,49.99
